Gatewood, Missouri
Current Conditions -  °F | °C
As of 3:15 AM on Wednesday 22 Oct 2014 (Local Time) from KARG Reporting Station
Clear Clear  
Wind Chill:   Ceiling: Unl
Heat Index:   Visibility: 10mi
Dew Point:   Wind: 7mph
Humidity: 66%   Direction: 20°NNE
Pressure: 30.17"   Gusts: NA
Location:  36.58°N, 91.09°W
Report Text: KARG 220815Z AUTO 02006KT 10SM CLR 09/03 A3017 RMK AO1
Loading
Personal Weather Stations






























Interactive Weather Map
Tropical Storm Tracking
New forecast layout! Learn more

10-Day Weather Forecast

Advertisements
Track Severe Weather on mobile